Time;durP1;ratioP1;P1;durP2;ratioP2;P2;SDS_P1;SDS_P2;PMS_P1;PMS_P2;Temp;Humidity;BMP_temperature;BMP_pressure;BME280_temperature;BME280_humidity;BME280_pressure;Samples;Min_cycle;Max_cycle;Signal;HPM_P1;HPM_P2
2022/11/16 00:00:25;;;;;;;3.83;3.05;;;20.60;99.90;;;;;;4178150;28;20285;-71
2022/11/16 00:02:27;;;;;;;3.78;3.13;;;20.60;99.90;;;;;;4178905;28;20220;-71
2022/11/16 00:04:30;;;;;;;4.65;3.00;;;20.50;99.90;;;;;;4178761;28;20638;-71
2022/11/16 00:06:32;;;;;;;4.25;2.90;;;20.60;99.90;;;;;;4180216;28;20216;-71
2022/11/16 00:08:37;;;;;;;4.57;3.15;;;20.60;99.90;;;;;;4177200;28;20246;-71
2022/11/16 00:10:39;;;;;;;4.75;3.40;;;20.50;99.90;;;;;;4179020;28;20783;-71
2022/11/16 00:12:43;;;;;;;3.95;3.10;;;20.50;99.90;;;;;;4182682;28;20220;-71
2022/11/16 00:14:45;;;;;;;4.15;3.75;;;20.60;99.90;;;;;;4179106;28;20219;-71
2022/11/16 00:16:48;;;;;;;4.80;3.03;;;20.50;99.90;;;;;;4178886;28;20281;-71
2022/11/16 00:18:56;;;;;;;4.57;3.45;;;20.60;99.90;;;;;;4178508;28;20267;-71
2022/11/16 00:20:58;;;;;;;3.63;2.85;;;20.60;99.90;;;;;;4168159;28;20587;-71
2022/11/16 00:23:01;;;;;;;3.67;3.17;;;20.60;99.90;;;;;;4178164;28;20290;-71
2022/11/16 00:25:03;;;;;;;4.40;3.42;;;20.50;99.90;;;;;;4178799;28;20290;-71
2022/11/16 00:27:05;;;;;;;3.60;3.10;;;20.50;99.90;;;;;;4179256;28;20216;-71
2022/11/16 00:29:13;;;;;;;3.53;2.88;;;20.50;99.90;;;;;;4178709;28;20223;-70
2022/11/16 00:31:15;;;;;;;4.07;3.10;;;20.50;99.90;;;;;;4179427;28;20405;-70
2022/11/16 00:33:18;;;;;;;3.72;2.95;;;20.50;99.90;;;;;;4178787;28;20223;-70
2022/11/16 00:35:20;;;;;;;3.88;3.28;;;20.50;99.90;;;;;;4178643;28;20223;-70
2022/11/16 00:37:22;;;;;;;3.55;2.85;;;20.50;99.90;;;;;;4178203;28;20220;-70
2022/11/16 00:39:25;;;;;;;4.03;2.85;;;20.50;99.90;;;;;;4178181;28;20266;-70
2022/11/16 00:41:27;;;;;;;4.75;3.10;;;20.50;99.90;;;;;;4178328;28;20212;-70
2022/11/16 00:43:30;;;;;;;4.15;3.17;;;20.50;99.90;;;;;;4179116;28;20211;-71
2022/11/16 00:45:33;;;;;;;3.80;3.00;;;20.50;99.90;;;;;;4178765;28;20613;-71
2022/11/16 00:47:36;;;;;;;3.80;3.00;;;20.50;99.90;;;;;;4176573;28;20261;-71
2022/11/16 00:49:38;;;;;;;3.72;2.88;;;20.50;99.90;;;;;;4187068;28;20227;-71
2022/11/16 00:51:40;;;;;;;4.65;2.90;;;20.50;99.90;;;;;;4178480;28;20236;-71
2022/11/16 00:53:43;;;;;;;3.22;2.63;;;20.50;99.90;;;;;;4177332;28;20283;-71
2022/11/16 00:55:46;;;;;;;4.57;3.25;;;20.50;99.90;;;;;;4173433;28;20219;-71
2022/11/16 00:57:49;;;;;;;3.13;2.80;;;20.50;99.90;;;;;;4174981;28;20219;-71
2022/11/16 00:59:51;;;;;;;4.38;3.40;;;20.40;99.90;;;;;;4161444;28;20668;-71
2022/11/16 01:01:55;;;;;;;4.40;3.35;;;20.50;99.90;;;;;;4161931;28;20288;-71
2022/11/16 01:03:57;;;;;;;4.38;3.10;;;20.50;99.90;;;;;;4162176;28;20262;-71
2022/11/16 01:06:02;;;;;;;4.53;2.92;;;20.40;99.90;;;;;;4161833;28;20220;-71
2022/11/16 01:08:05;;;;;;;3.97;2.45;;;20.50;99.90;;;;;;4163136;28;20220;-71
2022/11/16 01:10:12;;;;;;;3.78;2.78;;;20.40;99.90;;;;;;4161167;28;20268;-71
2022/11/16 01:12:13;;;;;;;3.60;2.80;;;20.40;99.90;;;;;;4162971;28;20239;-71
2022/11/16 01:14:16;;;;;;;3.67;3.03;;;20.40;99.90;;;;;;4158899;28;20216;-71
2022/11/16 01:16:20;;;;;;;3.70;3.00;;;20.40;99.90;;;;;;4159437;28;20742;-71
2022/11/16 01:18:24;;;;;;;3.08;2.72;;;20.40;99.90;;;;;;4161671;28;20216;-71
2022/11/16 01:20:28;;;;;;;3.38;2.42;;;20.40;99.90;;;;;;4150812;28;20254;-71
2022/11/16 01:22:31;;;;;;;3.08;2.78;;;20.40;99.90;;;;;;4158301;28;20280;-71
2022/11/16 01:24:33;;;;;;;3.35;2.83;;;20.40;99.90;;;;;;4161317;28;20224;-71
2022/11/16 01:26:35;;;;;;;3.35;2.58;;;20.40;99.90;;;;;;4157163;28;20588;-71
2022/11/16 01:28:37;;;;;;;5.47;2.80;;;20.40;99.90;;;;;;4151451;28;20221;-71
2022/11/16 01:30:40;;;;;;;2.95;2.45;;;20.40;99.90;;;;;;4158000;28;20224;-71
2022/11/16 01:32:42;;;;;;;3.75;2.53;;;20.30;99.90;;;;;;4161328;28;20240;-71
2022/11/16 01:34:46;;;;;;;3.17;2.83;;;20.30;99.90;;;;;;4160398;28;20628;-71
2022/11/16 01:36:48;;;;;;;3.85;2.80;;;20.30;99.90;;;;;;4147962;28;20221;-71
2022/11/16 01:38:50;;;;;;;3.72;2.40;;;20.40;99.90;;;;;;4158669;28;20292;-71
2022/11/16 01:40:53;;;;;;;5.38;2.67;;;20.30;99.90;;;;;;4161773;28;20274;-71
2022/11/16 01:42:55;;;;;;;3.33;2.97;;;20.30;99.90;;;;;;4159049;28;20220;-71
2022/11/16 01:45:05;;;;;;;3.35;2.40;;;20.30;99.90;;;;;;4160072;28;20286;-71
2022/11/16 01:47:12;;;;;;;2.90;2.55;;;20.30;99.90;;;;;;4157582;28;20219;-71
2022/11/16 01:49:19;;;;;;;3.78;2.78;;;20.30;99.90;;;;;;4161147;28;20212;-71
2022/11/16 01:51:23;;;;;;;3.00;2.55;;;20.30;99.90;;;;;;4161281;28;20557;-71
2022/11/16 01:53:25;;;;;;;3.83;2.67;;;20.30;99.90;;;;;;4162963;28;20216;-71
2022/11/16 01:55:30;;;;;;;3.75;2.55;;;20.30;99.90;;;;;;4164175;28;20330;-71
2022/11/16 01:57:36;;;;;;;4.15;2.60;;;20.30;99.90;;;;;;4149475;28;20221;-71
2022/11/16 01:59:40;;;;;;;3.20;2.30;;;20.30;99.90;;;;;;4160782;28;20629;-71
2022/11/16 02:01:42;;;;;;;4.05;2.60;;;20.30;99.90;;;;;;4160620;28;20605;-71
2022/11/16 02:03:44;;;;;;;3.17;2.47;;;20.30;99.90;;;;;;4156928;28;20220;-71
2022/11/16 02:06:01;;;;;;;4.05;2.40;;;20.30;99.90;;;;;;4161037;28;20220;-71
2022/11/16 02:10:56;;;;;;;3.55;2.50;;;20.30;99.90;;;;;;4161044;28;20220;-71
2022/11/16 02:13:17;;;;;;;3.15;2.60;;;20.30;99.90;;;;;;4167553;28;20285;-71
2022/11/16 02:15:26;;;;;;;3.65;2.95;;;20.30;99.90;;;;;;4158676;28;20216;-71
2022/11/16 02:17:38;;;;;;;2.75;2.40;;;20.20;99.90;;;;;;4161132;28;20267;-71
2022/11/16 02:20:07;;;;;;;4.38;2.80;;;20.30;99.90;;;;;;4156038;28;20216;-71
2022/11/16 02:22:21;;;;;;;3.30;2.40;;;20.20;99.90;;;;;;4153356;28;20213;-71
2022/11/16 02:24:53;;;;;;;2.78;2.17;;;20.20;99.90;;;;;;4152358;28;20220;-71
2022/11/16 02:27:18;;;;;;;3.42;2.33;;;20.20;99.90;;;;;;4160904;28;20664;-71
2022/11/16 02:29:27;;;;;;;3.40;2.67;;;20.20;99.90;;;;;;4153165;28;20220;-71
2022/11/16 02:31:34;;;;;;;4.28;2.65;;;20.20;99.90;;;;;;4160739;28;20208;-71
2022/11/16 02:33:39;;;;;;;3.15;2.30;;;20.20;99.90;;;;;;4161435;28;20292;-71
2022/11/16 02:35:46;;;;;;;3.55;2.42;;;20.20;99.90;;;;;;4160326;28;20267;-71
2022/11/16 02:37:54;;;;;;;2.95;2.58;;;20.20;99.90;;;;;;4154936;28;20216;-71
2022/11/16 02:39:59;;;;;;;3.75;2.38;;;20.20;99.90;;;;;;4160844;28;20223;-71
2022/11/16 02:42:03;;;;;;;2.92;2.25;;;20.20;99.90;;;;;;4157073;28;20275;-71
2022/11/16 02:44:11;;;;;;;2.83;2.33;;;20.20;99.90;;;;;;4156042;28;20280;-71
2022/11/16 02:46:21;;;;;;;2.35;2.13;;;20.10;99.90;;;;;;4152743;28;20211;-71
2022/11/16 02:48:27;;;;;;;2.78;2.10;;;20.10;99.90;;;;;;4160807;28;20216;-71
2022/11/16 02:50:31;;;;;;;3.67;2.70;;;20.10;99.90;;;;;;4160685;28;20263;-71
2022/11/16 02:52:35;;;;;;;3.55;2.38;;;20.10;99.90;;;;;;4160784;28;20315;-71
2022/11/16 02:54:38;;;;;;;3.03;2.20;;;20.10;99.90;;;;;;4157107;28;20217;-71
2022/11/16 02:56:43;;;;;;;3.28;2.45;;;20.10;99.90;;;;;;4155896;28;20289;-71
2022/11/16 02:58:46;;;;;;;2.60;2.22;;;20.10;99.90;;;;;;4164103;28;20291;-71
2022/11/16 03:00:54;;;;;;;3.08;2.45;;;20.10;99.90;;;;;;4161922;28;20275;-71
2022/11/16 03:03:10;;;;;;;2.75;2.38;;;20.10;99.90;;;;;;4162601;28;20716;-71
2022/11/16 03:05:17;;;;;;;3.50;2.20;;;20.10;99.90;;;;;;4163831;28;20228;-71
2022/11/16 03:07:25;;;;;;;3.75;2.55;;;20.10;99.90;;;;;;4168483;28;20220;-71
2022/11/16 03:09:31;;;;;;;2.65;2.17;;;20.10;99.90;;;;;;4170975;28;20313;-71
2022/11/16 03:13:59;;;;;;;2.92;2.30;;;20.10;99.90;;;;;;4162663;28;20623;-71
2022/11/16 03:16:05;;;;;;;2.92;2.20;;;20.10;99.90;;;;;;4170819;28;20212;-71
2022/11/16 03:18:09;;;;;;;3.38;2.45;;;20.10;99.90;;;;;;4163637;28;20220;-71
2022/11/16 03:20:15;;;;;;;5.68;2.35;;;20.00;99.90;;;;;;4161334;28;20216;-71
2022/11/16 03:22:24;;;;;;;3.78;2.10;;;20.10;99.90;;;;;;4163122;28;20286;-71
2022/11/16 03:24:26;;;;;;;3.15;2.33;;;20.00;99.90;;;;;;4158096;28;20242;-71
2022/11/16 03:26:35;;;;;;;2.85;2.13;;;20.10;99.90;;;;;;4160178;28;20228;-71
2022/11/16 03:28:47;;;;;;;3.00;2.30;;;20.00;99.90;;;;;;4160064;28;20275;-71
2022/11/16 03:30:52;;;;;;;2.40;2.10;;;20.00;99.90;;;;;;4160633;28;20220;-71
2022/11/16 03:33:01;;;;;;;3.72;2.38;;;20.00;99.90;;;;;;4159361;28;21160;-71
2022/11/16 03:35:10;;;;;;;2.45;2.10;;;20.00;99.90;;;;;;4162007;28;20223;-71
2022/11/16 03:37:13;;;;;;;2.95;2.13;;;20.00;99.90;;;;;;4161603;28;20275;-71
2022/11/16 03:39:20;;;;;;;2.72;1.92;;;20.00;99.90;;;;;;4162465;28;20228;-70
2022/11/16 03:41:24;;;;;;;3.30;2.20;;;20.00;99.90;;;;;;4164132;28;20251;-71
2022/11/16 03:43:27;;;;;;;3.15;2.30;;;20.00;99.90;;;;;;4162462;28;20217;-71
2022/11/16 03:45:31;;;;;;;2.50;2.15;;;20.00;99.90;;;;;;4159494;28;20217;-71
2022/11/16 03:47:33;;;;;;;3.45;2.08;;;20.00;99.90;;;;;;4162527;28;20279;-70
2022/11/16 03:49:36;;;;;;;4.30;2.35;;;20.00;99.90;;;;;;4160885;28;20676;-71
2022/11/16 03:51:39;;;;;;;3.70;2.00;;;20.00;99.90;;;;;;4162102;28;20216;-71
2022/11/16 03:53:42;;;;;;;3.15;1.98;;;20.00;99.90;;;;;;4163030;28;20244;-71
2022/11/16 03:55:44;;;;;;;3.78;2.50;;;20.00;99.90;;;;;;4160667;28;20311;-71
2022/11/16 03:57:47;;;;;;;4.50;2.00;;;20.00;99.90;;;;;;4162286;28;20348;-71
2022/11/16 03:59:49;;;;;;;2.72;2.08;;;20.00;99.90;;;;;;4178254;28;20239;-71
2022/11/16 04:01:51;;;;;;;3.10;2.30;;;19.90;99.90;;;;;;4180281;28;20269;-71
2022/11/16 04:03:53;;;;;;;2.88;2.17;;;19.90;99.90;;;;;;4178865;28;20634;-71
2022/11/16 04:24:56;;;;;;;2.75;1.88;;;19.90;99.90;;;;;;4155336;28;20212;-71
2022/11/16 04:29:21;;;;;;;3.28;2.05;;;19.80;99.90;;;;;;4178036;28;20200;-71
2022/11/16 04:38:23;;;;;;;2.75;2.05;;;19.80;99.90;;;;;;4179759;28;20195;-71
2022/11/16 04:40:28;;;;;;;4.35;2.10;;;19.80;99.90;;;;;;4177606;28;20239;-71
2022/11/16 04:42:30;;;;;;;2.95;1.98;;;19.80;99.90;;;;;;4176264;28;20649;-71
2022/11/16 04:47:06;;;;;;;4.43;2.20;;;19.80;99.90;;;;;;4176503;28;20220;-71
2022/11/16 04:49:10;;;;;;;3.25;2.00;;;19.80;99.90;;;;;;4177371;28;20656;-71
2022/11/16 04:51:12;;;;;;;3.47;1.98;;;19.80;99.90;;;;;;4177726;28;20216;-71
2022/11/16 04:53:15;;;;;;;3.55;2.20;;;19.80;99.90;;;;;;4177141;28;20309;-71
2022/11/16 04:55:17;;;;;;;2.80;1.90;;;19.80;99.90;;;;;;4177015;28;20224;-71
2022/11/16 04:57:21;;;;;;;3.03;2.08;;;19.80;99.90;;;;;;4176277;28;20215;-71
2022/11/16 04:59:23;;;;;;;3.17;2.08;;;19.80;99.90;;;;;;4176619;28;20247;-70
2022/11/16 05:03:42;;;;;;;2.33;1.80;;;19.80;99.90;;;;;;4173143;28;20200;-70
2022/11/16 05:05:44;;;;;;;3.85;2.38;;;19.70;99.90;;;;;;4176683;28;20211;-71
2022/11/16 05:07:46;;;;;;;3.67;2.20;;;19.70;99.90;;;;;;4176249;28;20628;-71
2022/11/16 05:09:49;;;;;;;2.50;2.13;;;19.70;99.90;;;;;;4177059;28;20220;-71
2022/11/16 05:11:52;;;;;;;7.05;1.98;;;19.70;99.90;;;;;;4173656;28;20234;-71
2022/11/16 05:13:55;;;;;;;2.88;2.05;;;19.70;99.90;;;;;;4176448;28;20243;-71
2022/11/16 05:15:57;;;;;;;2.22;1.65;;;19.70;99.90;;;;;;4176147;28;20266;-71
2022/11/16 05:18:00;;;;;;;4.15;2.25;;;19.70;99.90;;;;;;4176146;28;20212;-71
2022/11/16 05:22:22;;;;;;;3.30;2.05;;;19.70;99.90;;;;;;4176351;28;20200;-71
2022/11/16 05:24:33;;;;;;;4.03;2.13;;;19.70;99.90;;;;;;4176572;28;20694;-71
2022/11/16 05:26:35;;;;;;;3.47;2.00;;;19.70;99.90;;;;;;4176352;28;20211;-71
2022/11/16 05:28:37;;;;;;;4.03;2.00;;;19.70;99.90;;;;;;4173397;28;20216;-71
2022/11/16 05:30:44;;;;;;;3.22;2.15;;;19.70;99.90;;;;;;4176455;28;20223;-71
2022/11/16 05:32:47;;;;;;;4.22;2.10;;;19.70;99.90;;;;;;4176194;28;20230;-71
2022/11/16 05:34:49;;;;;;;3.03;2.00;;;19.60;99.90;;;;;;4176371;28;20244;-71
2022/11/16 05:36:52;;;;;;;4.20;2.15;;;19.70;99.90;;;;;;4175964;28;20287;-71
2022/11/16 05:38:54;;;;;;;3.63;1.95;;;19.60;99.90;;;;;;4176930;28;20254;-71
2022/11/16 05:40:56;;;;;;;3.70;2.20;;;19.60;99.90;;;;;;4177111;28;20605;-71
2022/11/16 05:42:58;;;;;;;2.85;2.03;;;19.60;99.90;;;;;;4175678;28;20247;-71
2022/11/16 05:45:01;;;;;;;2.47;1.83;;;19.60;99.90;;;;;;4173619;28;20282;-71
2022/11/16 05:47:05;;;;;;;3.38;2.10;;;19.60;99.90;;;;;;4176115;28;20228;-71
2022/11/16 05:49:08;;;;;;;2.10;1.67;;;19.60;99.90;;;;;;4176529;28;20294;-71
2022/11/16 05:51:10;;;;;;;4.65;2.20;;;19.60;99.90;;;;;;4176417;28;20665;-71
2022/11/16 05:53:12;;;;;;;4.60;2.15;;;19.60;99.90;;;;;;4175826;28;20602;-71
2022/11/16 05:55:15;;;;;;;4.40;2.03;;;19.60;99.90;;;;;;4173093;28;20227;-71
2022/11/16 05:57:17;;;;;;;3.58;1.90;;;19.50;99.90;;;;;;4173671;28;20212;-70
2022/11/16 05:59:21;;;;;;;2.50;1.80;;;19.60;99.90;;;;;;4175498;28;20239;-71
2022/11/16 06:01:24;;;;;;;4.55;2.33;;;19.60;99.90;;;;;;4174113;28;20581;-71
2022/11/16 06:03:29;;;;;;;2.67;1.60;;;19.60;99.90;;;;;;4175412;28;20244;-71
2022/11/16 06:05:34;;;;;;;2.58;1.98;;;19.60;99.90;;;;;;4175575;28;20215;-71
2022/11/16 06:07:36;;;;;;;4.28;1.90;;;19.70;99.90;;;;;;4175847;28;20977;-71
2022/11/16 06:09:38;;;;;;;3.38;2.00;;;19.60;99.90;;;;;;4174785;28;20242;-71
2022/11/16 06:11:41;;;;;;;3.00;1.80;;;19.70;99.90;;;;;;4175180;28;20215;-71
2022/11/16 06:13:43;;;;;;;2.63;1.75;;;19.70;99.90;;;;;;4176639;28;20293;-71
2022/11/16 06:15:46;;;;;;;2.35;1.70;;;19.70;99.90;;;;;;4175949;28;20212;-71
2022/11/16 06:17:48;;;;;;;4.97;2.10;;;19.70;99.90;;;;;;4176044;28;20258;-71
2022/11/16 06:19:52;;;;;;;2.55;1.73;;;19.70;99.90;;;;;;4175497;28;20258;-71
2022/11/16 06:21:54;;;;;;;3.50;1.83;;;19.80;99.90;;;;;;4175355;28;20659;-71
2022/11/16 06:23:56;;;;;;;3.05;2.05;;;19.80;99.90;;;;;;4175440;28;20211;-71
2022/11/16 06:25:58;;;;;;;3.03;2.00;;;19.80;99.90;;;;;;4174513;28;20324;-71
2022/11/16 06:28:01;;;;;;;3.60;2.05;;;19.80;99.90;;;;;;4175907;28;20212;-71
2022/11/16 06:30:03;;;;;;;2.45;1.63;;;19.80;99.90;;;;;;4176038;28;20224;-71
2022/11/16 06:32:06;;;;;;;3.88;1.80;;;19.80;99.90;;;;;;4176187;28;20228;-71
2022/11/16 06:34:08;;;;;;;3.33;1.63;;;19.80;99.90;;;;;;4176325;28;20235;-71
2022/11/16 06:36:12;;;;;;;3.25;1.73;;;19.80;99.90;;;;;;4173044;28;20265;-71
2022/11/16 06:38:17;;;;;;;4.00;1.85;;;19.80;99.90;;;;;;4173774;28;20610;-71
2022/11/16 06:40:19;;;;;;;2.80;1.42;;;19.90;99.90;;;;;;4178000;28;20270;-71
2022/11/16 06:42:22;;;;;;;2.20;1.58;;;19.90;99.90;;;;;;4177502;28;20276;-71
2022/11/16 06:44:24;;;;;;;4.22;1.90;;;19.90;99.90;;;;;;4178364;28;20220;-71
2022/11/16 06:46:26;;;;;;;3.63;1.75;;;19.90;99.90;;;;;;4178743;28;20266;-71
2022/11/16 06:48:32;;;;;;;3.67;2.00;;;19.90;99.90;;;;;;4178548;28;20215;-71
2022/11/16 06:50:34;;;;;;;3.08;1.60;;;19.90;99.90;;;;;;4177946;28;20282;-71
2022/11/16 06:52:38;;;;;;;4.28;1.67;;;19.90;99.90;;;;;;4177725;28;20224;-71
2022/11/16 06:54:40;;;;;;;3.83;1.80;;;19.90;99.90;;;;;;4178620;28;20276;-71
2022/11/16 06:56:42;;;;;;;2.47;1.67;;;20.00;99.90;;;;;;4177700;28;20274;-71
2022/11/16 06:58:45;;;;;;;3.72;1.83;;;20.00;99.90;;;;;;4178089;28;20761;-71
2022/11/16 07:00:47;;;;;;;3.83;1.77;;;20.00;99.90;;;;;;4178900;28;20228;-71
2022/11/16 07:02:49;;;;;;;3.58;1.65;;;20.10;99.90;;;;;;4178900;28;20220;-71
2022/11/16 07:04:52;;;;;;;4.70;2.33;;;20.00;99.90;;;;;;4176694;28;20266;-71
2022/11/16 07:06:54;;;;;;;3.72;1.70;;;20.00;99.90;;;;;;4177171;28;20262;-71
2022/11/16 07:08:57;;;;;;;5.22;1.75;;;20.10;99.90;;;;;;4174048;28;20289;-71
2022/11/16 07:11:02;;;;;;;3.97;1.75;;;20.10;99.90;;;;;;4178046;28;20241;-71
2022/11/16 07:13:04;;;;;;;4.43;1.73;;;20.10;99.90;;;;;;4178134;28;20627;-71
2022/11/16 07:15:08;;;;;;;3.35;1.60;;;20.10;99.90;;;;;;4178706;28;20293;-71
2022/11/16 07:17:10;;;;;;;2.78;1.60;;;20.10;99.90;;;;;;4178373;28;20651;-71
2022/11/16 07:19:12;;;;;;;4.13;1.67;;;20.20;99.90;;;;;;4177324;28;20220;-71
2022/11/16 07:21:16;;;;;;;2.47;1.40;;;20.20;99.90;;;;;;4177305;28;20227;-71
2022/11/16 07:23:19;;;;;;;2.92;1.48;;;20.20;99.90;;;;;;4177384;28;20224;-71
2022/11/16 07:25:22;;;;;;;3.83;1.77;;;20.30;99.90;;;;;;4177940;28;20266;-71
2022/11/16 07:27:25;;;;;;;3.20;1.40;;;20.30;99.90;;;;;;4176163;28;20972;-71
2022/11/16 07:29:30;;;;;;;4.22;1.80;;;20.30;99.90;;;;;;4178353;28;20228;-71
2022/11/16 07:31:32;;;;;;;3.03;1.50;;;20.30;99.90;;;;;;4177592;28;20656;-71
2022/11/16 07:33:35;;;;;;;2.75;1.48;;;20.30;99.90;;;;;;4178196;28;20262;-71
2022/11/16 07:35:37;;;;;;;4.18;1.65;;;20.30;99.90;;;;;;4178139;28;20236;-71
2022/11/16 07:37:39;;;;;;;3.10;1.50;;;20.30;99.90;;;;;;4178231;28;20254;-71
2022/11/16 07:39:42;;;;;;;4.05;1.50;;;20.30;99.90;;;;;;4176583;28;20695;-71
2022/11/16 07:41:46;;;;;;;2.72;1.30;;;20.30;99.90;;;;;;4176280;28;20266;-71
2022/11/16 07:43:48;;;;;;;3.35;1.67;;;20.30;99.90;;;;;;4176187;28;20258;-71
2022/11/16 07:45:52;;;;;;;5.05;1.73;;;20.30;99.90;;;;;;4179394;28;20258;-71
2022/11/16 07:47:54;;;;;;;3.25;1.95;;;20.30;99.90;;;;;;4179110;28;20220;-71
2022/11/16 07:49:56;;;;;;;3.95;1.83;;;20.30;99.90;;;;;;4177345;28;20220;-71
2022/11/16 07:51:58;;;;;;;3.22;1.40;;;20.30;99.90;;;;;;4175098;28;20220;-71
2022/11/16 07:54:01;;;;;;;5.35;2.00;;;20.40;99.90;;;;;;4177501;28;20267;-71
2022/11/16 07:56:04;;;;;;;8.30;1.75;;;20.30;99.90;;;;;;4173952;28;20243;-72
2022/11/16 07:58:08;;;;;;;4.40;1.60;;;20.30;99.90;;;;;;4175645;28;20282;-72
2022/11/16 08:00:10;;;;;;;4.57;1.88;;;20.40;99.90;;;;;;4162521;28;20264;-72
2022/11/16 08:02:13;;;;;;;5.13;1.85;;;20.50;99.90;;;;;;4160121;28;20225;-72
2022/11/16 08:04:16;;;;;;;3.47;1.80;;;20.50;99.90;;;;;;4168924;28;20213;-71
2022/11/16 08:06:22;;;;;;;3.67;1.58;;;20.50;99.90;;;;;;4151956;28;20289;-73
2022/11/16 08:08:27;;;;;;;5.43;1.75;;;20.60;99.90;;;;;;4160081;28;20232;-73
2022/11/16 08:10:30;;;;;;;6.07;1.73;;;20.60;99.90;;;;;;4157911;28;20565;-72
2022/11/16 08:12:32;;;;;;;3.58;1.58;;;20.60;99.90;;;;;;4160032;28;20840;-72
2022/11/16 08:14:36;;;;;;;4.45;1.75;;;20.70;99.90;;;;;;4159322;28;20272;-72
2022/11/16 08:16:38;;;;;;;3.80;1.67;;;20.70;99.90;;;;;;4158537;28;20275;-72
2022/11/16 08:18:41;;;;;;;5.18;1.67;;;20.70;99.90;;;;;;4159668;28;20243;-72
2022/11/16 08:20:44;;;;;;;3.00;1.38;;;20.70;99.90;;;;;;4154222;28;20602;-71
2022/11/16 08:22:46;;;;;;;4.95;1.60;;;20.70;99.90;;;;;;4152963;28;20275;-71
2022/11/16 08:24:48;;;;;;;7.80;1.55;;;20.80;99.90;;;;;;4154012;28;20217;-71
2022/11/16 08:26:51;;;;;;;6.95;1.63;;;20.80;99.90;;;;;;4163289;28;20675;-72
2022/11/16 08:28:55;;;;;;;3.92;1.95;;;20.70;99.90;;;;;;4161486;28;20579;-73
2022/11/16 08:30:59;;;;;;;3.08;1.48;;;20.80;99.90;;;;;;4157422;28;20271;-72
2022/11/16 08:33:02;;;;;;;12.07;2.10;;;20.90;99.90;;;;;;4159660;28;20259;-80
2022/11/16 08:35:06;;;;;;;4.03;1.70;;;20.80;99.90;;;;;;4149999;28;20287;-72
2022/11/16 08:37:08;;;;;;;9.10;2.10;;;21.00;99.90;;;;;;4154690;28;20267;-73
2022/11/16 08:39:10;;;;;;;8.30;1.70;;;21.00;99.90;;;;;;4151363;28;20307;-71
2022/11/16 08:41:13;;;;;;;10.65;1.90;;;21.00;99.90;;;;;;4152969;28;20798;-72
2022/11/16 08:43:15;;;;;;;6.03;1.88;;;20.90;99.90;;;;;;4159239;28;20228;-72
2022/11/16 08:45:17;;;;;;;5.35;1.65;;;21.00;99.90;;;;;;4151634;28;20287;-73
2022/11/16 08:47:21;;;;;;;5.93;1.60;;;20.90;99.90;;;;;;4150953;28;20258;-74
2022/11/16 08:49:24;;;;;;;5.72;1.92;;;20.90;99.90;;;;;;4156188;28;20216;-73
2022/11/16 08:51:27;;;;;;;3.65;1.52;;;20.90;99.90;;;;;;4158854;28;20669;-75
2022/11/16 08:53:29;;;;;;;6.97;1.65;;;20.90;99.90;;;;;;4155234;28;20217;-73
2022/11/16 08:55:33;;;;;;;6.15;1.70;;;21.00;99.90;;;;;;4159074;28;20285;-72
2022/11/16 08:57:35;;;;;;;5.75;1.58;;;21.00;99.90;;;;;;4154470;28;21866;-73
2022/11/16 08:59:37;;;;;;;9.35;1.67;;;21.00;99.90;;;;;;4157745;28;20291;-73
2022/11/16 09:01:40;;;;;;;4.15;1.60;;;21.00;99.90;;;;;;4157902;28;20215;-73
2022/11/16 09:03:44;;;;;;;6.57;1.70;;;21.10;99.90;;;;;;4161191;28;20220;-73
2022/11/16 09:05:48;;;;;;;6.82;1.42;;;21.00;99.90;;;;;;4153117;28;20408;-73
2022/11/16 09:07:50;;;;;;;6.47;1.75;;;21.10;99.90;;;;;;4157554;28;20727;-73
2022/11/16 09:09:53;;;;;;;7.28;1.88;;;21.00;99.90;;;;;;4155606;28;20238;-74
2022/11/16 09:11:55;;;;;;;5.07;1.55;;;21.00;99.90;;;;;;4158215;28;21066;-73
2022/11/16 09:13:58;;;;;;;5.47;1.58;;;21.10;99.90;;;;;;4157398;28;20221;-73
2022/11/16 09:16:01;;;;;;;5.32;1.55;;;21.10;99.90;;;;;;4153297;28;20708;-74
2022/11/16 09:18:04;;;;;;;7.60;1.52;;;21.10;99.90;;;;;;4156816;28;20225;-73
2022/11/16 09:20:08;;;;;;;2.95;1.45;;;21.10;99.90;;;;;;4157666;28;20326;-74
2022/11/16 09:22:11;;;;;;;6.57;1.50;;;21.10;99.90;;;;;;4156043;28;20216;-73
2022/11/16 09:24:13;;;;;;;4.78;1.40;;;21.20;99.90;;;;;;4155563;28;20225;-73
2022/11/16 09:26:19;;;;;;;4.65;1.67;;;21.20;99.90;;;;;;4153012;28;20260;-73
2022/11/16 09:28:22;;;;;;;4.03;1.70;;;21.20;99.90;;;;;;4153773;28;20212;-74
2022/11/16 09:30:24;;;;;;;6.80;1.92;;;21.20;99.90;;;;;;4153749;28;20271;-73
2022/11/16 09:32:26;;;;;;;2.65;1.20;;;21.30;99.90;;;;;;4151305;28;20294;-73
2022/11/16 09:34:29;;;;;;;3.17;1.65;;;21.30;99.90;;;;;;4156450;28;20339;-73
2022/11/16 09:36:33;;;;;;;5.07;1.60;;;21.30;99.90;;;;;;4154654;28;20268;-73
2022/11/16 09:38:39;;;;;;;5.85;1.40;;;21.30;99.90;;;;;;4155910;28;20346;-73
2022/11/16 09:40:46;;;;;;;5.20;1.40;;;21.30;99.90;;;;;;4156557;28;20213;-73
2022/11/16 09:43:00;;;;;;;4.55;1.42;;;21.40;99.90;;;;;;4149254;28;20729;-73
2022/11/16 09:45:07;;;;;;;3.88;1.52;;;21.40;99.90;;;;;;4156808;28;20571;-73
2022/11/16 09:47:16;;;;;;;4.10;1.38;;;21.30;99.90;;;;;;4155222;28;20703;-73
2022/11/16 09:49:22;;;;;;;4.00;1.40;;;21.40;99.90;;;;;;4153144;28;20255;-73
2022/11/16 09:51:28;;;;;;;2.72;1.30;;;21.40;99.90;;;;;;4155074;28;20720;-74
2022/11/16 09:53:40;;;;;;;5.05;1.48;;;21.40;99.90;;;;;;4154077;28;20212;-74
2022/11/16 09:55:52;;;;;;;2.78;1.38;;;21.50;99.90;;;;;;4152498;28;20240;-74
2022/11/16 09:57:58;;;;;;;4.13;1.30;;;21.50;99.90;;;;;;4156845;28;20458;-74
2022/11/16 10:00:13;;;;;;;4.60;1.50;;;21.50;99.90;;;;;;4170279;28;20273;-74
2022/11/16 10:02:21;;;;;;;4.88;1.80;;;21.50;99.90;;;;;;4169342;28;20606;-73
2022/11/16 10:04:37;;;;;;;3.25;1.23;;;21.50;99.90;;;;;;4176342;28;20253;-74
2022/11/16 10:06:49;;;;;;;4.05;1.10;;;21.50;99.90;;;;;;4174334;28;20256;-73
2022/11/16 10:08:55;;;;;;;5.53;1.35;;;21.50;99.90;;;;;;4172574;28;20250;-73
2022/11/16 10:11:08;;;;;;;6.68;1.67;;;21.50;99.90;;;;;;4174508;28;20274;-73
2022/11/16 10:13:20;;;;;;;4.10;1.73;;;21.50;99.90;;;;;;4174428;28;21012;-73
2022/11/16 10:15:40;;;;;;;3.17;1.55;;;21.60;99.90;;;;;;4174569;28;20219;-73
2022/11/16 10:18:01;;;;;;;2.65;1.23;;;21.60;99.90;;;;;;4169627;28;20266;-73
2022/11/16 10:20:21;;;;;;;1.73;1.23;;;21.60;99.90;;;;;;4172595;28;20239;-74
2022/11/16 10:22:42;;;;;;;3.72;1.55;;;21.60;99.90;;;;;;4174969;28;20208;-73
2022/11/16 10:24:56;;;;;;;3.83;1.45;;;21.60;99.90;;;;;;4170854;28;20219;-73
2022/11/16 10:27:24;;;;;;;4.20;1.40;;;21.60;99.90;;;;;;4172257;28;20270;-74
2022/11/16 10:29:39;;;;;;;6.75;1.60;;;21.70;99.90;;;;;;4170703;28;20262;-74
2022/11/16 10:31:56;;;;;;;3.55;1.25;;;21.70;99.90;;;;;;4171416;28;20282;-74
2022/11/16 10:34:01;;;;;;;3.47;1.40;;;21.70;99.90;;;;;;4166845;28;20228;-74
2022/11/16 10:36:11;;;;;;;5.22;1.60;;;21.70;99.90;;;;;;4171523;28;20294;-74
2022/11/16 10:38:15;;;;;;;3.72;1.50;;;21.80;99.90;;;;;;4170843;28;20215;-73
2022/11/16 10:40:23;;;;;;;4.95;1.48;;;21.80;99.90;;;;;;4167657;28;20227;-73
2022/11/16 10:42:31;;;;;;;4.40;1.65;;;21.70;99.90;;;;;;4170024;28;20215;-73
2022/11/16 10:44:37;;;;;;;3.33;1.40;;;21.70;99.90;;;;;;4171374;28;20219;-73
2022/11/16 10:46:46;;;;;;;4.25;1.55;;;21.70;99.90;;;;;;4169678;28;20588;-74
2022/11/16 10:48:58;;;;;;;5.55;1.38;;;21.70;99.90;;;;;;4166909;28;20278;-73
2022/11/16 10:51:01;;;;;;;5.07;1.65;;;21.80;99.90;;;;;;4164369;28;20265;-72
2022/11/16 10:53:03;;;;;;;2.65;1.10;;;21.80;99.90;;;;;;4166459;28;20670;-76
2022/11/16 10:55:07;;;;;;;4.90;1.42;;;21.90;99.90;;;;;;4174261;28;20662;-74
2022/11/16 10:57:12;;;;;;;5.80;1.65;;;21.90;99.90;;;;;;4170791;28;20244;-75
2022/11/16 10:59:18;;;;;;;6.03;1.73;;;21.90;99.90;;;;;;4171358;28;20224;-75
2022/11/16 11:01:35;;;;;;;5.20;1.70;;;22.00;99.90;;;;;;4164209;28;20216;-77
2022/11/16 11:03:38;;;;;;;5.03;1.70;;;21.90;99.90;;;;;;4164745;28;20267;-76
2022/11/16 11:05:52;;;;;;;9.13;1.60;;;22.00;99.90;;;;;;4163212;28;20270;-73
2022/11/16 11:08:01;;;;;;;5.55;1.60;;;22.10;99.90;;;;;;4168524;28;20242;-73
2022/11/16 11:10:04;;;;;;;2.95;1.48;;;22.10;99.90;;;;;;4166418;28;20219;-75
2022/11/16 11:14:35;;;;;;;4.82;1.70;;;22.10;99.90;;;;;;4168749;28;20204;-76
2022/11/16 11:16:40;;;;;;;4.97;1.70;;;22.10;99.90;;;;;;4169537;28;20302;-76
2022/11/16 11:18:42;;;;;;;6.15;1.65;;;22.20;99.90;;;;;;4174738;28;20212;-75
2022/11/16 11:20:49;;;;;;;5.80;1.70;;;22.10;99.90;;;;;;4168238;28;20223;-76
2022/11/16 11:22:54;;;;;;;4.78;1.58;;;22.20;99.90;;;;;;4166592;28;20821;-75
2022/11/16 11:24:57;;;;;;;6.55;2.03;;;22.20;99.90;;;;;;4165826;28;20289;-75
2022/11/16 11:27:00;;;;;;;5.38;1.73;;;22.20;99.90;;;;;;4167269;28;20219;-75
2022/11/16 11:29:15;;;;;;;2.97;1.60;;;22.10;99.90;;;;;;4163946;28;20242;-75
2022/11/16 11:31:24;;;;;;;5.15;2.03;;;22.10;99.90;;;;;;4165059;28;20215;-73
2022/11/16 11:33:30;;;;;;;7.78;1.60;;;22.10;99.90;;;;;;4174556;28;20215;-75